createdAt,value
2022-08-05T00:01:36.337Z,46.89
2022-08-05T00:04:17.940Z,47.31
2022-08-05T00:06:47.255Z,47.03
2022-08-05T00:09:19.341Z,47.45
2022-08-05T00:11:59.882Z,47.43
2022-08-05T00:14:29.157Z,47.23
2022-08-05T00:17:01.874Z,47.51
2022-08-05T00:19:33.171Z,47.89
2022-08-05T00:22:04.237Z,48.00
2022-08-05T00:24:32.915Z,47.85
2022-08-05T00:27:04.718Z,47.89
2022-08-05T00:29:39.482Z,47.92
2022-08-05T00:32:12.262Z,47.90
2022-08-05T00:35:04.826Z,48.05
2022-08-05T00:37:51.222Z,47.90
2022-08-05T00:40:28.154Z,48.07
2022-08-05T00:43:02.804Z,47.73
2022-08-05T00:45:43.083Z,48.06
2022-08-05T00:48:17.547Z,47.98
2022-08-05T00:50:48.847Z,48.13
2022-08-05T00:54:01.264Z,48.03
2022-08-05T00:56:08.997Z,47.99
2022-08-05T00:58:37.613Z,48.19
2022-08-05T01:01:08.887Z,48.32
2022-08-05T01:03:40.486Z,48.37
2022-08-05T01:06:14.094Z,48.28
2022-08-05T01:08:46.380Z,48.60
2022-08-05T01:11:37.351Z,49.08
2022-08-05T01:14:15.409Z,48.82
2022-08-05T01:17:08.075Z,48.86
2022-08-05T01:20:01.722Z,49.03
2022-08-05T01:22:50.080Z,49.07
2022-08-05T01:25:40.825Z,49.19
2022-08-05T01:28:33.498Z,48.92
2022-08-05T01:31:23.069Z,49.12
2022-08-05T01:34:08.411Z,49.23
2022-08-05T01:36:46.988Z,49.26
2022-08-05T01:39:46.274Z,49.23
2022-08-05T01:42:09.646Z,49.34
2022-08-05T01:44:40.068Z,49.37
2022-08-05T01:47:11.490Z,49.62
2022-08-05T01:50:00.477Z,49.78
2022-08-05T01:52:32.962Z,49.83
2022-08-05T01:55:07.478Z,49.97
2022-08-05T01:58:29.423Z,50.08
2022-08-05T02:00:37.639Z,50.13
2022-08-05T02:03:32.020Z,50.32
2022-08-05T02:06:33.294Z,50.43
2022-08-05T02:08:59.035Z,50.51
2022-08-05T02:11:52.173Z,50.56
2022-08-05T02:14:29.441Z,50.50
2022-08-05T02:17:16.808Z,50.48
2022-08-05T02:19:53.368Z,50.58
2022-08-05T02:22:33.296Z,50.74
2022-08-05T02:25:09.044Z,50.82
2022-08-05T02:27:59.411Z,50.89
2022-08-05T02:30:35.643Z,51.01
2022-08-05T02:33:07.697Z,50.95
2022-08-05T02:35:44.893Z,51.13
2022-08-05T02:38:26.969Z,51.28
2022-08-05T02:41:14.717Z,51.18
2022-08-05T02:44:02.414Z,51.26
2022-08-05T02:46:53.755Z,51.27
2022-08-05T02:49:36.515Z,51.10
2022-08-05T02:52:30.148Z,51.10
2022-08-05T02:55:01.975Z,50.97
2022-08-05T02:58:19.641Z,51.10
2022-08-05T03:00:25.277Z,51.21
2022-08-05T03:02:56.757Z,50.99
2022-08-05T03:06:55.890Z,51.04
2022-08-05T03:08:16.532Z,51.11
2022-08-05T03:11:02.366Z,51.07
2022-08-05T03:13:52.268Z,51.03
2022-08-05T03:16:23.009Z,51.22
2022-08-05T03:18:51.591Z,50.98
2022-08-05T03:21:20.353Z,51.08
2022-08-05T03:23:50.576Z,51.08
2022-08-05T03:26:31.378Z,51.07
2022-08-05T03:29:00.837Z,51.01
2022-08-05T03:31:56.533Z,50.96
2022-08-05T03:34:19.463Z,50.90
2022-08-05T03:36:53.022Z,50.96
2022-08-05T03:39:26.765Z,51.02
2022-08-05T03:41:57.307Z,50.95
2022-08-05T03:44:28.970Z,50.88
2022-08-05T03:46:57.702Z,50.96
2022-08-05T03:49:31.234Z,50.83
2022-08-05T03:52:38.008Z,50.92
2022-08-05T03:56:04.164Z,50.84
2022-08-05T03:58:11.266Z,50.75
2022-08-05T04:00:41.951Z,50.92
2022-08-05T04:03:26.611Z,50.90
2022-08-05T04:05:59.185Z,51.02
2022-08-05T04:08:36.585Z,50.98
2022-08-05T04:11:08.640Z,51.18
2022-08-05T04:13:50.017Z,51.36
2022-08-05T04:16:25.521Z,51.59
2022-08-05T04:19:02.574Z,51.46
2022-08-05T04:22:08.863Z,51.13
2022-08-05T04:24:27.909Z,51.13
2022-08-05T04:26:58.226Z,51.33
2022-08-05T04:29:27.157Z,51.52
2022-08-05T04:31:56.717Z,51.53
2022-08-05T04:34:33.972Z,51.28
2022-08-05T04:37:03.821Z,51.31
2022-08-05T04:39:35.251Z,51.38
2022-08-05T04:42:04.547Z,51.63
2022-08-05T04:44:32.758Z,51.62
2022-08-05T04:47:09.628Z,51.83
2022-08-05T04:50:02.660Z,51.63
2022-08-05T04:52:28.522Z,51.90
2022-08-05T04:54:57.795Z,51.93
2022-08-05T04:57:29.104Z,51.96
2022-08-05T04:59:58.639Z,51.75
2022-08-05T05:02:37.566Z,51.67
2022-08-05T05:05:16.581Z,51.61
2022-08-05T05:08:00.929Z,51.67
2022-08-05T05:10:33.404Z,51.64
2022-08-05T05:13:04.357Z,51.67
2022-08-05T05:15:56.714Z,51.48
2022-08-05T05:18:28.337Z,51.59
2022-08-05T05:21:00.108Z,52.00
2022-08-05T05:23:39.373Z,51.86
2022-08-05T05:26:17.160Z,52.07
2022-08-05T05:28:45.472Z,51.96
2022-08-05T05:31:13.983Z,51.68
2022-08-05T05:33:59.252Z,51.71
2022-08-05T05:36:28.354Z,51.54
2022-08-05T05:38:58.768Z,51.49
2022-08-05T05:41:40.722Z,51.38
2022-08-05T05:44:36.923Z,51.57
2022-08-05T05:47:04.220Z,51.19
2022-08-05T05:49:34.149Z,51.14
2022-08-05T05:52:06.029Z,50.89
2022-08-05T05:54:49.763Z,50.63
2022-08-05T05:57:20.309Z,50.79
2022-08-05T05:59:49.127Z,50.43
2022-08-05T06:02:27.934Z,50.22
2022-08-05T06:05:16.520Z,50.43
2022-08-05T06:08:01.173Z,50.12
2022-08-05T06:10:36.595Z,49.53
2022-08-05T06:13:05.785Z,49.84
2022-08-05T06:16:28.322Z,49.62
2022-08-05T06:18:30.811Z,49.07
2022-08-05T06:21:00.744Z,49.20
2022-08-05T06:23:43.850Z,49.03
2022-08-05T06:26:23.993Z,48.71
2022-08-05T06:28:53.343Z,48.29
2022-08-05T06:31:22.576Z,48.56
2022-08-05T06:34:07.650Z,48.27
2022-08-05T06:36:57.414Z,48.04
2022-08-05T06:39:27.779Z,47.82
2022-08-05T06:42:04.058Z,47.79
2022-08-05T06:44:32.877Z,47.55
2022-08-05T06:47:02.256Z,47.72
2022-08-05T06:50:00.146Z,47.77
2022-08-05T06:52:37.336Z,47.64
2022-08-05T06:55:08.391Z,47.49
2022-08-05T06:57:57.360Z,47.24
2022-08-05T07:00:25.515Z,47.49
2022-08-05T07:02:54.402Z,47.45
2022-08-05T07:05:27.837Z,47.68
2022-08-05T07:08:10.588Z,47.50
2022-08-05T07:10:52.888Z,47.40
2022-08-05T07:13:58.357Z,47.57
2022-08-05T07:18:02.278Z,47.40
2022-08-05T07:22:28.322Z,46.77
2022-08-05T07:25:23.831Z,46.75
2022-08-05T07:27:58.317Z,46.54
2022-08-05T07:30:39.168Z,46.42
2022-08-05T07:33:15.921Z,46.25
2022-08-05T07:36:03.188Z,46.33
2022-08-05T07:38:43.509Z,46.58
2022-08-05T07:42:13.426Z,46.46
2022-08-05T07:44:14.489Z,46.40
2022-08-05T07:46:49.492Z,46.06
2022-08-05T07:49:20.727Z,46.28
2022-08-05T07:51:54.664Z,46.33
2022-08-05T07:54:30.721Z,45.83
2022-08-05T07:57:18.114Z,46.04
2022-08-05T07:59:51.412Z,46.00
2022-08-05T08:02:26.860Z,46.07
2022-08-05T08:05:01.227Z,46.10
2022-08-05T08:07:39.772Z,46.00
2022-08-05T08:10:20.753Z,45.64
2022-08-05T08:12:50.367Z,45.55
2022-08-05T08:16:33.421Z,45.40
2022-08-05T08:18:13.832Z,45.24
2022-08-05T08:21:03.349Z,45.11
2022-08-05T08:24:01.605Z,45.06
2022-08-05T08:26:29.567Z,45.03
2022-08-05T08:29:22.256Z,44.87
2022-08-05T08:31:51.037Z,44.57
2022-08-05T08:34:30.448Z,44.39
2022-08-05T08:37:04.617Z,44.29
2022-08-05T08:39:37.620Z,44.32
2022-08-05T08:42:32.288Z,44.18
2022-08-05T08:45:23.663Z,43.91
2022-08-05T08:48:12.792Z,43.79
2022-08-05T08:51:03.411Z,43.46
2022-08-05T08:53:36.842Z,43.58
2022-08-05T08:56:06.418Z,43.18
2022-08-05T08:58:43.897Z,42.95
2022-08-05T09:01:18.513Z,42.80
2022-08-05T09:03:54.411Z,42.93
2022-08-05T09:06:30.723Z,43.16
2022-08-05T09:09:01.957Z,43.35
2022-08-05T09:11:52.958Z,43.45
2022-08-05T09:14:58.881Z,43.08
2022-08-05T09:17:43.088Z,43.20
2022-08-05T09:20:05.695Z,43.14
2022-08-05T09:23:05.467Z,43.11
2022-08-05T09:26:01.167Z,43.54
2022-08-05T09:28:34.854Z,43.49
2022-08-05T09:31:22.338Z,42.86
2022-08-05T09:34:01.619Z,42.00
2022-08-05T09:36:54.014Z,42.81
2022-08-05T09:39:39.519Z,42.66
2022-08-05T09:42:24.426Z,42.95
2022-08-05T09:45:03.314Z,42.75
2022-08-05T09:47:55.624Z,42.64
2022-08-05T09:50:44.052Z,43.12
2022-08-05T09:53:23.176Z,42.98
2022-08-05T09:56:03.786Z,42.78
2022-08-05T09:58:41.898Z,42.77
2022-08-05T10:01:22.654Z,43.19
2022-08-05T10:04:03.699Z,43.17
2022-08-05T10:06:33.380Z,43.32
2022-08-05T10:09:27.615Z,43.48
2022-08-05T10:12:30.288Z,43.19
2022-08-05T10:15:34.143Z,43.10
2022-08-05T10:18:11.805Z,42.87
2022-08-05T10:20:48.507Z,43.34
2022-08-05T10:23:55.609Z,43.76
2022-08-05T10:26:24.215Z,43.34
2022-08-05T10:29:00.437Z,43.51
2022-08-05T10:32:54.589Z,43.08
2022-08-05T10:34:18.077Z,43.06
2022-08-05T10:36:54.232Z,43.78
2022-08-05T10:39:59.035Z,43.72
2022-08-05T10:42:34.106Z,42.94
2022-08-05T10:45:21.077Z,43.53
2022-08-05T10:48:30.055Z,44.19
2022-08-05T10:51:03.437Z,44.41
2022-08-05T10:53:56.047Z,44.87
2022-08-05T10:56:30.033Z,45.18
2022-08-05T10:59:12.142Z,44.82
2022-08-05T11:02:38.396Z,44.82
2022-08-05T11:05:11.706Z,44.83
2022-08-05T11:08:02.753Z,44.81
2022-08-05T11:10:37.439Z,45.21
2022-08-05T11:13:07.953Z,44.96
2022-08-05T11:15:59.099Z,44.65
2022-08-05T11:18:34.878Z,44.73
2022-08-05T11:21:11.291Z,44.88
2022-08-05T11:24:03.423Z,44.18
2022-08-05T11:26:35.114Z,44.31
2022-08-05T11:29:12.812Z,44.37
2022-08-05T11:31:57.045Z,44.20
2022-08-05T11:34:51.608Z,44.49
2022-08-05T11:38:28.778Z,44.64
2022-08-05T11:41:03.638Z,43.94
2022-08-05T11:44:07.577Z,43.43
2022-08-05T11:47:10.148Z,43.92
2022-08-05T11:50:39.460Z,42.92
2022-08-05T11:53:09.896Z,43.47
2022-08-05T11:55:38.382Z,43.58
2022-08-05T11:58:10.168Z,43.55
2022-08-05T12:00:44.377Z,43.68
2022-08-05T12:03:29.216Z,44.13
2022-08-05T12:06:06.464Z,44.17
2022-08-05T12:08:51.407Z,44.37
2022-08-05T12:11:39.786Z,44.79
2022-08-05T12:14:08.805Z,45.32
2022-08-05T12:16:45.619Z,45.64
2022-08-05T12:20:26.978Z,45.93
2022-08-05T12:22:09.755Z,46.20
2022-08-05T12:24:49.353Z,46.74
2022-08-05T12:27:25.411Z,46.92
2022-08-05T12:30:03.396Z,47.09
2022-08-05T12:32:34.254Z,47.12
2022-08-05T12:35:04.318Z,47.76
2022-08-05T12:37:33.301Z,47.75
2022-08-05T12:40:10.872Z,47.88
2022-08-05T12:42:40.961Z,47.84
2022-08-05T12:45:10.520Z,48.03
2022-08-05T12:47:43.572Z,47.95
2022-08-05T12:50:27.659Z,47.88
2022-08-05T12:53:00.165Z,47.99
2022-08-05T12:55:32.981Z,48.17
2022-08-05T12:58:50.015Z,48.14
2022-08-05T13:01:59.952Z,48.32
2022-08-05T13:03:48.851Z,48.52
2022-08-05T13:06:20.225Z,48.80
2022-08-05T13:09:08.872Z,49.64
2022-08-05T13:12:02.061Z,50.19
2022-08-05T13:15:05.589Z,50.82
2022-08-05T13:17:41.799Z,51.59
2022-08-05T13:20:19.194Z,51.83
2022-08-05T13:22:53.434Z,52.10
2022-08-05T13:25:51.830Z,52.22
2022-08-05T13:28:11.753Z,52.39
2022-08-05T13:30:42.609Z,52.52
2022-08-05T13:33:14.358Z,52.79
2022-08-05T13:36:01.881Z,53.04
2022-08-05T13:38:36.305Z,53.40
2022-08-05T13:41:07.437Z,53.74
2022-08-05T13:43:45.723Z,53.94
2022-08-05T13:46:43.808Z,54.35
2022-08-05T13:49:13.950Z,54.86
2022-08-05T13:51:46.273Z,55.29
2022-08-05T13:54:21.030Z,55.78
2022-08-05T13:56:53.646Z,56.00
2022-08-05T13:59:25.048Z,55.93
2022-08-05T14:01:58.761Z,56.08
2022-08-05T14:06:24.832Z,56.39
2022-08-05T14:08:32.632Z,56.70
2022-08-05T14:11:20.623Z,56.86
2022-08-05T14:13:54.826Z,57.27
2022-08-05T14:16:46.981Z,56.94
2022-08-05T14:19:19.951Z,57.24
2022-08-05T14:25:06.418Z,57.77
2022-08-05T14:27:53.948Z,57.94
2022-08-05T14:30:22.874Z,58.07
2022-08-05T14:36:09.217Z,58.72
2022-08-05T14:38:39.123Z,58.66
2022-08-05T14:41:09.880Z,58.88
2022-08-05T14:43:58.912Z,59.09
2022-08-05T14:46:29.826Z,59.57
2022-08-05T14:49:06.703Z,59.75
2022-08-05T14:51:42.352Z,60.48
2022-08-05T14:54:27.548Z,60.69
2022-08-05T14:56:58.918Z,61.21
2022-08-05T14:59:29.679Z,61.18
2022-08-05T15:02:15.809Z,61.46
2022-08-05T15:04:56.418Z,61.64
2022-08-05T15:08:07.707Z,61.75
2022-08-05T15:10:17.385Z,61.46
2022-08-05T15:13:59.549Z,61.84
2022-08-05T15:16:31.369Z,62.09
2022-08-05T15:19:01.141Z,62.37
2022-08-05T15:21:42.408Z,62.57
2022-08-05T15:24:20.481Z,62.68
2022-08-05T15:26:50.896Z,62.83
2022-08-05T15:29:19.222Z,62.69
2022-08-05T15:31:53.028Z,62.67
2022-08-05T15:34:33.066Z,62.70
2022-08-05T15:37:06.963Z,63.24
2022-08-05T15:40:58.916Z,63.03
2022-08-05T15:42:56.250Z,63.21
2022-08-05T15:45:37.130Z,63.44
2022-08-05T15:48:07.267Z,63.60
2022-08-05T15:50:36.154Z,63.72
2022-08-05T15:53:06.917Z,64.03
2022-08-05T15:56:03.766Z,64.09
2022-08-05T15:58:26.437Z,64.07
2022-08-05T16:01:18.456Z,64.12
2022-08-05T16:03:44.660Z,63.98
2022-08-05T16:06:19.828Z,64.13
2022-08-05T16:08:53.472Z,64.29
2022-08-05T16:11:40.046Z,64.33
2022-08-05T16:14:17.123Z,64.33
2022-08-05T16:16:47.389Z,64.08
2022-08-05T16:19:25.421Z,64.04
2022-08-05T16:22:06.023Z,64.14
2022-08-05T16:24:41.050Z,63.88
2022-08-05T16:27:15.916Z,64.12
2022-08-05T16:29:50.356Z,64.43
2022-08-05T16:32:28.652Z,64.59
2022-08-05T16:34:58.787Z,64.87
2022-08-05T16:38:03.173Z,65.12
2022-08-05T16:40:26.709Z,64.94
2022-08-05T16:42:57.724Z,65.11
2022-08-05T16:46:06.703Z,65.27
2022-08-05T16:48:26.180Z,65.06
2022-08-05T16:51:03.950Z,64.92
2022-08-05T16:54:06.329Z,64.86
2022-08-05T16:56:31.133Z,64.65
2022-08-05T16:59:08.127Z,64.68
2022-08-05T17:01:54.785Z,64.95
2022-08-05T17:04:27.173Z,64.91
2022-08-05T17:07:01.058Z,64.91
2022-08-05T17:09:38.995Z,65.10
2022-08-05T17:12:22.574Z,65.09
2022-08-05T17:14:51.821Z,65.06
2022-08-05T17:17:26.369Z,65.02
2022-08-05T17:20:15.037Z,65.06
2022-08-05T17:22:55.369Z,65.14
2022-08-05T17:25:39.556Z,65.14
2022-08-05T17:28:25.188Z,65.08
2022-08-05T17:32:05.432Z,65.18
2022-08-05T17:34:34.892Z,65.46
2022-08-05T17:37:04.489Z,65.44
2022-08-05T17:39:55.076Z,65.41
2022-08-05T17:42:29.851Z,65.60
2022-08-05T17:45:23.166Z,65.79
2022-08-05T17:47:55.789Z,65.81
2022-08-05T17:50:28.694Z,65.90
2022-08-05T17:53:00.629Z,65.87
2022-08-05T17:55:37.217Z,66.04
2022-08-05T17:58:14.644Z,65.99
2022-08-05T18:00:50.665Z,66.46
2022-08-05T18:03:56.355Z,66.33
2022-08-05T18:06:12.086Z,66.62
2022-08-05T18:08:52.571Z,66.72
2022-08-05T18:11:24.293Z,66.81
2022-08-05T18:14:13.451Z,66.97
2022-08-05T18:16:43.736Z,67.07
2022-08-05T18:19:23.321Z,67.09
2022-08-05T18:22:09.220Z,67.27
2022-08-05T18:24:40.347Z,67.54
2022-08-05T18:27:18.047Z,67.56
2022-08-05T18:29:53.528Z,67.62
2022-08-05T18:32:29.715Z,67.61
2022-08-05T18:34:58.687Z,67.78
2022-08-05T18:37:34.184Z,67.88
2022-08-05T18:41:50.256Z,68.19
2022-08-05T18:42:59.750Z,68.28
2022-08-05T18:45:41.273Z,68.53
2022-08-05T18:48:17.528Z,68.72
2022-08-05T18:52:05.877Z,69.07
2022-08-05T18:54:10.014Z,69.16
2022-08-05T18:56:52.017Z,69.31
2022-08-05T18:59:43.323Z,69.69
2022-08-05T19:02:11.211Z,69.77
2022-08-05T19:05:01.177Z,69.88
2022-08-05T19:07:45.871Z,70.34
2022-08-05T19:10:26.545Z,70.68
2022-08-05T19:12:57.672Z,70.61
2022-08-05T19:16:00.090Z,71.02
2022-08-05T19:18:21.812Z,71.25
2022-08-05T19:20:55.962Z,71.30
2022-08-05T19:24:05.686Z,71.43
2022-08-05T19:26:16.785Z,71.54
2022-08-05T19:28:49.117Z,71.83
2022-08-05T19:32:05.558Z,72.19
2022-08-05T19:34:55.050Z,71.68
2022-08-05T19:37:35.105Z,71.96
2022-08-05T19:40:15.037Z,71.97
2022-08-05T19:43:04.439Z,72.34
2022-08-05T19:45:36.447Z,72.36
2022-08-05T19:48:30.268Z,72.52
2022-08-05T19:50:58.649Z,72.55
2022-08-05T19:54:05.303Z,72.54
2022-08-05T19:56:37.140Z,72.35
2022-08-05T19:59:53.980Z,72.40
2022-08-05T20:01:55.034Z,72.94
2022-08-05T20:04:23.600Z,72.72
2022-08-05T20:06:51.991Z,72.88
2022-08-05T20:09:21.014Z,72.96
2022-08-05T20:11:49.482Z,72.69
2022-08-05T20:14:26.886Z,72.83
2022-08-05T20:16:58.708Z,72.29
2022-08-05T20:19:36.317Z,72.32
2022-08-05T20:22:09.951Z,72.34
2022-08-05T20:24:39.716Z,72.22
2022-08-05T20:27:11.213Z,71.66
2022-08-05T20:29:40.164Z,71.66
2022-08-05T20:32:08.453Z,71.71
2022-08-05T20:34:38.685Z,71.61
2022-08-05T20:37:17.666Z,71.50
2022-08-05T20:39:51.728Z,71.27
2022-08-05T20:42:21.884Z,71.07
2022-08-05T20:44:50.056Z,70.76
2022-08-05T20:47:18.791Z,70.81
2022-08-05T20:49:47.556Z,70.73
2022-08-05T20:52:19.678Z,70.42
2022-08-05T20:55:54.399Z,70.29
2022-08-05T20:57:43.038Z,70.09
2022-08-05T21:00:41.139Z,69.88
2022-08-05T21:03:07.278Z,69.95
2022-08-05T21:05:53.810Z,69.56
2022-08-05T21:08:26.460Z,69.43
2022-08-05T21:10:58.512Z,69.43
2022-08-05T21:13:47.526Z,69.18
2022-08-05T21:16:16.153Z,68.90
2022-08-05T21:18:45.497Z,69.01
2022-08-05T21:21:13.708Z,69.08
2022-08-05T21:23:42.114Z,68.82
2022-08-05T21:26:14.287Z,68.73
2022-08-05T21:28:48.001Z,68.36
2022-08-05T21:31:19.954Z,68.50
2022-08-05T21:33:50.663Z,68.62
2022-08-05T21:36:29.934Z,68.48
2022-08-05T21:39:01.101Z,68.45
2022-08-05T21:41:32.834Z,68.51
2022-08-05T21:44:04.761Z,68.44
2022-08-05T21:46:34.852Z,68.44
2022-08-05T21:49:07.530Z,68.12
2022-08-05T21:52:27.829Z,68.13
2022-08-05T21:54:27.684Z,68.23
2022-08-05T21:57:28.105Z,68.05
2022-08-05T22:00:02.060Z,68.11
2022-08-05T22:02:32.444Z,68.02
2022-08-05T22:05:02.085Z,67.78
2022-08-05T22:07:39.295Z,67.98
2022-08-05T22:10:26.798Z,67.88
2022-08-05T22:12:59.037Z,68.18
2022-08-05T22:16:02.729Z,68.14
2022-08-05T22:18:25.593Z,68.21
2022-08-05T22:20:54.717Z,68.17
2022-08-05T22:24:01.382Z,67.93
2022-08-05T22:26:50.522Z,68.06
2022-08-05T22:29:26.251Z,67.96
2022-08-05T22:31:59.729Z,67.90
2022-08-05T22:34:33.417Z,68.25
2022-08-05T22:37:03.860Z,68.25
2022-08-05T22:39:34.936Z,68.56
2022-08-05T22:42:12.115Z,68.39
2022-08-05T22:44:48.604Z,68.28
2022-08-05T22:47:29.365Z,68.43
2022-08-05T22:50:20.258Z,68.26
2022-08-05T22:52:52.532Z,67.97
2022-08-05T22:55:23.276Z,68.06
2022-08-05T22:57:53.561Z,68.00
2022-08-05T23:00:23.855Z,68.08
2022-08-05T23:02:53.800Z,68.17
2022-08-05T23:05:23.244Z,68.02
2022-08-05T23:07:52.667Z,68.17
2022-08-05T23:10:23.860Z,67.98
2022-08-05T23:12:54.454Z,68.22
2022-08-05T23:15:27.153Z,68.22
2022-08-05T23:18:02.119Z,68.18
2022-08-05T23:20:33.586Z,68.28
2022-08-05T23:23:08.726Z,68.28
2022-08-05T23:25:53.303Z,68.24
2022-08-05T23:28:27.790Z,68.09
2022-08-05T23:31:14.818Z,68.17
2022-08-05T23:34:05.614Z,68.03
2022-08-05T23:36:38.506Z,68.04
2022-08-05T23:39:08.780Z,67.93
2022-08-05T23:41:41.077Z,67.81
2022-08-05T23:44:16.956Z,67.76
2022-08-05T23:46:48.506Z,67.97
2022-08-05T23:49:23.671Z,67.97
2022-08-05T23:52:12.408Z,68.08
2022-08-05T23:54:46.232Z,68.00
2022-08-05T23:57:15.586Z,67.88
